sensor_id;sensor_type;location;lat;lon;timestamp;pressure;altitude;pressure_sealevel;temperature;humidity
42105;BME280;61464;51.472;5.712;2023-01-27T00:00:52;102159.53;;;4.12;100.00
42105;BME280;61464;51.472;5.712;2023-01-27T00:03:19;102164.84;;;4.09;100.00
42105;BME280;61464;51.472;5.712;2023-01-27T00:05:46;102155.81;;;4.01;100.00
42105;BME280;61464;51.472;5.712;2023-01-27T00:08:15;102153.16;;;4.03;100.00
42105;BME280;61464;51.472;5.712;2023-01-27T00:10:43;102153.91;;;4.05;100.00
42105;BME280;61464;51.472;5.712;2023-01-27T00:13:13;102146.38;;;4.02;100.00
42105;BME280;61464;51.472;5.712;2023-01-27T00:15:56;102149.28;;;3.96;100.00
42105;BME280;61464;51.472;5.712;2023-01-27T00:18:22;102155.56;;;3.90;100.00
42105;BME280;61464;51.472;5.712;2023-01-27T00:20:48;102158.94;;;3.91;100.00
42105;BME280;61464;51.472;5.712;2023-01-27T00:23:33;102152.38;;;3.85;100.00
42105;BME280;61464;51.472;5.712;2023-01-27T00:26:18;102153.44;;;3.81;100.00
42105;BME280;61464;51.472;5.712;2023-01-27T00:28:47;102159.25;;;3.85;100.00
42105;BME280;61464;51.472;5.712;2023-01-27T00:31:15;102167.22;;;3.80;100.00
42105;BME280;61464;51.472;5.712;2023-01-27T00:34:02;102157.09;;;3.77;100.00
42105;BME280;61464;51.472;5.712;2023-01-27T00:36:35;102158.00;;;3.76;100.00
42105;BME280;61464;51.472;5.712;2023-01-27T00:39:02;102159.91;;;3.72;100.00
42105;BME280;61464;51.472;5.712;2023-01-27T00:41:30;102150.56;;;3.71;100.00
42105;BME280;61464;51.472;5.712;2023-01-27T00:44:07;102163.28;;;3.73;100.00
42105;BME280;61464;51.472;5.712;2023-01-27T00:46:51;102158.31;;;3.70;100.00
42105;BME280;61464;51.472;5.712;2023-01-27T00:49:17;102164.97;;;3.74;100.00
42105;BME280;61464;51.472;5.712;2023-01-27T00:51:46;102158.31;;;3.70;100.00
42105;BME280;61464;51.472;5.712;2023-01-27T00:54:12;102154.94;;;3.69;100.00
42105;BME280;61464;51.472;5.712;2023-01-27T00:56:39;102168.59;;;3.70;100.00
42105;BME280;61464;51.472;5.712;2023-01-27T00:59:06;102164.97;;;3.74;100.00
42105;BME280;61464;51.472;5.712;2023-01-27T01:01:33;102167.69;;;3.71;100.00
42105;BME280;61464;51.472;5.712;2023-01-27T01:04:00;102159.31;;;3.67;100.00
42105;BME280;61464;51.472;5.712;2023-01-27T01:06:27;102174.56;;;3.70;100.00
42105;BME280;61464;51.472;5.712;2023-01-27T01:08:55;102162.03;;;3.64;100.00
42105;BME280;61464;51.472;5.712;2023-01-27T01:11:22;102169.59;;;3.67;100.00
42105;BME280;61464;51.472;5.712;2023-01-27T01:13:51;102174.88;;;3.64;100.00
42105;BME280;61464;51.472;5.712;2023-01-27T01:19:06;102173.22;;;3.63;100.00
42105;BME280;61464;51.472;5.712;2023-01-27T01:22:17;102177.44;;;3.64;100.00
42105;BME280;61464;51.472;5.712;2023-01-27T01:25:01;102174.81;;;3.66;100.00
42105;BME280;61464;51.472;5.712;2023-01-27T01:27:28;102174.28;;;3.59;100.00
42105;BME280;61464;51.472;5.712;2023-01-27T01:29:56;102186.22;;;3.60;100.00
42105;BME280;61464;51.472;5.712;2023-01-27T01:32:43;102187.34;;;3.54;100.00
42105;BME280;61464;51.472;5.712;2023-01-27T01:35:12;102194.91;;;3.57;100.00
42105;BME280;61464;51.472;5.712;2023-01-27T01:37:41;102194.28;;;3.52;100.00
42105;BME280;61464;51.472;5.712;2023-01-27T01:40:09;102191.81;;;3.51;100.00
42105;BME280;61464;51.472;5.712;2023-01-27T01:43:05;102191.13;;;3.47;100.00
42105;BME280;61464;51.472;5.712;2023-01-27T01:51:24;102195.47;;;3.47;100.00
42105;BME280;61464;51.472;5.712;2023-01-27T01:54:31;102188.56;;;3.47;100.00
42105;BME280;61464;51.472;5.712;2023-01-27T01:57:13;102183.44;;;3.47;100.00
42105;BME280;61464;51.472;5.712;2023-01-27T02:00:07;102187.88;;;3.43;100.00
42105;BME280;61464;51.472;5.712;2023-01-27T02:06:00;102198.22;;;3.42;100.00
42105;BME280;61464;51.472;5.712;2023-01-27T02:08:46;102194.84;;;3.41;100.00
42105;BME280;61464;51.472;5.712;2023-01-27T02:11:22;102191.28;;;3.44;100.00
42105;BME280;61464;51.472;5.712;2023-01-27T02:14:19;102189.72;;;3.41;100.00
42105;BME280;61464;51.472;5.712;2023-01-27T02:17:08;102197.47;;;3.40;100.00
42105;BME280;61464;51.472;5.712;2023-01-27T02:19:57;102201.78;;;3.39;100.00
42105;BME280;61464;51.472;5.712;2023-01-27T02:28:10;102208.50;;;3.42;100.00
42105;BME280;61464;51.472;5.712;2023-01-27T02:30:44;102201.94;;;3.36;100.00
42105;BME280;61464;51.472;5.712;2023-01-27T02:33:13;102196.81;;;3.36;100.00
42105;BME280;61464;51.472;5.712;2023-01-27T02:38:32;102201.94;;;3.36;100.00
42105;BME280;61464;51.472;5.712;2023-01-27T02:43:39;102206.34;;;3.34;100.00
42105;BME280;61464;51.472;5.712;2023-01-27T02:46:05;102212.97;;;3.38;100.00
42105;BME280;61464;51.472;5.712;2023-01-27T02:48:31;102212.22;;;3.36;100.00
42105;BME280;61464;51.472;5.712;2023-01-27T02:50:57;102212.22;;;3.36;100.00
42105;BME280;61464;51.472;5.712;2023-01-27T02:53:23;102202.78;;;3.37;100.00
42105;BME280;61464;51.472;5.712;2023-01-27T02:55:49;102206.16;;;3.37;100.00
42105;BME280;61464;51.472;5.712;2023-01-27T02:58:17;102210.53;;;3.35;100.00
42105;BME280;61464;51.472;5.712;2023-01-27T03:00:50;102210.63;;;3.34;100.00
42105;BME280;61464;51.472;5.712;2023-01-27T03:03:24;102209.78;;;3.33;100.00
42105;BME280;61464;51.472;5.712;2023-01-27T03:06:01;102216.72;;;3.31;100.00
42105;BME280;61464;51.472;5.712;2023-01-27T03:08:28;102214.22;;;3.30;100.00
42105;BME280;61464;51.472;5.712;2023-01-27T03:10:57;102211.47;;;3.34;100.00
42105;BME280;61464;51.472;5.712;2023-01-27T03:13:24;102209.84;;;3.32;100.00
42105;BME280;61464;51.472;5.712;2023-01-27T03:15:57;102212.53;;;3.30;100.00
42105;BME280;61464;51.472;5.712;2023-01-27T03:18:43;102212.53;;;3.30;100.00
42105;BME280;61464;51.472;5.712;2023-01-27T03:21:16;102212.53;;;3.30;100.00
42105;BME280;61464;51.472;5.712;2023-01-27T03:23:43;102217.56;;;3.32;100.00
42105;BME280;61464;51.472;5.712;2023-01-27T03:26:12;102215.09;;;3.30;100.00
42105;BME280;61464;51.472;5.712;2023-01-27T03:28:38;102211.75;;;3.28;100.00
42105;BME280;61464;51.472;5.712;2023-01-27T03:31:12;102218.72;;;3.26;100.00
42105;BME280;61464;51.472;5.712;2023-01-27T03:33:45;102215.28;;;3.26;100.00
42105;BME280;61464;51.472;5.712;2023-01-27T03:36:14;102221.19;;;3.28;100.00
42105;BME280;61464;51.472;5.712;2023-01-27T03:38:58;102235.63;;;3.30;100.00
42105;BME280;61464;51.472;5.712;2023-01-27T03:41:44;102227.22;;;3.27;100.00
42105;BME280;61464;51.472;5.712;2023-01-27T03:44:28;102229.94;;;3.23;100.00
42105;BME280;61464;51.472;5.712;2023-01-27T03:47:14;102230.03;;;3.22;100.00
42105;BME280;61464;51.472;5.712;2023-01-27T03:49:40;102231.91;;;3.18;100.00
42105;BME280;61464;51.472;5.712;2023-01-27T03:52:07;102237.03;;;3.18;100.00
42105;BME280;61464;51.472;5.712;2023-01-27T03:54:33;102240.50;;;3.17;100.00
42105;BME280;61464;51.472;5.712;2023-01-27T03:56:59;102241.66;;;3.12;100.00
42105;BME280;61464;51.472;5.712;2023-01-27T03:59:30;102249.25;;;3.13;100.00
42105;BME280;61464;51.472;5.712;2023-01-27T04:01:57;102245.91;;;3.11;100.00
42105;BME280;61464;51.472;5.712;2023-01-27T04:04:42;102251.16;;;3.10;100.00
42105;BME280;61464;51.472;5.712;2023-01-27T04:07:40;102234.06;;;3.09;100.00
42105;BME280;61464;51.472;5.712;2023-01-27T04:10:07;102253.84;;;3.07;100.00
42105;BME280;61464;51.472;5.712;2023-01-27T04:12:33;102258.00;;;3.09;100.00
42105;BME280;61464;51.472;5.712;2023-01-27T04:15:08;102257.16;;;3.09;100.00
42105;BME280;61464;51.472;5.712;2023-01-27T04:17:34;102272.50;;;3.10;100.00
42105;BME280;61464;51.472;5.712;2023-01-27T04:20:08;102259.78;;;3.07;100.00
42105;BME280;61464;51.472;5.712;2023-01-27T04:22:37;102261.53;;;3.07;100.00
42105;BME280;61464;51.472;5.712;2023-01-27T04:25:07;102262.53;;;3.04;100.00
42105;BME280;61464;51.472;5.712;2023-01-27T04:27:42;102254.19;;;2.99;100.00
42105;BME280;61464;51.472;5.712;2023-01-27T04:30:10;102259.41;;;2.97;100.00
42105;BME280;61464;51.472;5.712;2023-01-27T04:32:37;102261.13;;;2.97;100.00
42105;BME280;61464;51.472;5.712;2023-01-27T04:35:06;102258.72;;;2.94;100.00
42105;BME280;61464;51.472;5.712;2023-01-27T04:37:41;102256.28;;;2.91;100.00
42105;BME280;61464;51.472;5.712;2023-01-27T04:40:07;102260.59;;;2.90;100.00
42105;BME280;61464;51.472;5.712;2023-01-27T04:42:36;102264.00;;;2.91;100.00
42105;BME280;61464;51.472;5.712;2023-01-27T04:45:05;102252.22;;;2.87;100.00
42105;BME280;61464;51.472;5.712;2023-01-27T04:47:31;102266.06;;;2.82;100.00
42105;BME280;61464;51.472;5.712;2023-01-27T04:49:57;102257.56;;;2.82;100.00
42105;BME280;61464;51.472;5.712;2023-01-27T04:52:23;102265.03;;;2.87;100.00
42105;BME280;61464;51.472;5.712;2023-01-27T04:54:49;102271.00;;;2.87;100.00
42105;BME280;61464;51.472;5.712;2023-01-27T04:57:15;102262.63;;;2.84;100.00
42105;BME280;61464;51.472;5.712;2023-01-27T04:59:41;102275.44;;;2.84;100.00
42105;BME280;61464;51.472;5.712;2023-01-27T05:02:10;102280.78;;;2.79;100.00
42105;BME280;61464;51.472;5.712;2023-01-27T05:04:37;102280.03;;;2.77;100.00
42105;BME280;61464;51.472;5.712;2023-01-27T05:07:04;102272.19;;;2.80;100.00
42105;BME280;61464;51.472;5.712;2023-01-27T05:09:36;102283.28;;;2.80;100.00
42105;BME280;61464;51.472;5.712;2023-01-27T05:12:05;102288.41;;;2.80;100.00
42105;BME280;61464;51.472;5.712;2023-01-27T05:14:31;102288.56;;;2.77;100.00
42105;BME280;61464;51.472;5.712;2023-01-27T05:17:00;102290.13;;;2.80;100.00
42105;BME280;61464;51.472;5.712;2023-01-27T05:19:30;102288.56;;;2.77;100.00
42105;BME280;61464;51.472;5.712;2023-01-27T05:22:12;102294.50;;;2.78;100.00
42105;BME280;61464;51.472;5.712;2023-01-27T05:25:01;102290.19;;;2.78;100.00
42105;BME280;61464;51.472;5.712;2023-01-27T05:27:34;102291.19;;;2.76;100.00
42105;BME280;61464;51.472;5.712;2023-01-27T05:30:02;102297.06;;;2.78;100.00
42105;BME280;61464;51.472;5.712;2023-01-27T05:32:32;102302.13;;;2.79;100.00
42105;BME280;61464;51.472;5.712;2023-01-27T05:35:20;102300.63;;;2.75;100.00
42105;BME280;61464;51.472;5.712;2023-01-27T05:37:46;102295.41;;;2.77;100.00
42105;BME280;61464;51.472;5.712;2023-01-27T05:40:12;102302.06;;;2.81;100.00
42105;BME280;61464;51.472;5.712;2023-01-27T05:42:39;102293.69;;;2.77;100.00
42105;BME280;61464;51.472;5.712;2023-01-27T05:45:06;102298.03;;;2.75;100.00
42105;BME280;61464;51.472;5.712;2023-01-27T05:47:33;102299.03;;;2.73;100.00
42105;BME280;61464;51.472;5.712;2023-01-27T05:50:00;102302.47;;;2.72;100.00
42105;BME280;61464;51.472;5.712;2023-01-27T05:52:26;102303.19;;;2.75;100.00
42105;BME280;61464;51.472;5.712;2023-01-27T05:54:55;102304.91;;;2.75;100.00
42105;BME280;61464;51.472;5.712;2023-01-27T05:57:26;102299.91;;;2.72;100.00
42105;BME280;61464;51.472;5.712;2023-01-27T05:59:57;102298.09;;;2.74;100.00
42105;BME280;61464;51.472;5.712;2023-01-27T06:02:23;102300.63;;;2.75;100.00
42105;BME280;61464;51.472;5.712;2023-01-27T06:04:49;102294.66;;;2.75;100.00
42105;BME280;61464;51.472;5.712;2023-01-27T06:07:15;102300.63;;;2.75;100.00
42105;BME280;61464;51.472;5.712;2023-01-27T06:09:42;102309.94;;;2.76;100.00
42105;BME280;61464;51.472;5.712;2023-01-27T06:12:09;102310.66;;;2.80;100.00
42105;BME280;61464;51.472;5.712;2023-01-27T06:14:36;102314.81;;;2.82;100.00
42105;BME280;61464;51.472;5.712;2023-01-27T06:17:08;102306.34;;;2.80;100.00
42105;BME280;61464;51.472;5.712;2023-01-27T06:19:38;102301.31;;;2.79;100.00
42105;BME280;61464;51.472;5.712;2023-01-27T06:22:04;102308.78;;;2.84;100.00
42105;BME280;61464;51.472;5.712;2023-01-27T06:24:30;102310.38;;;2.86;100.00
42105;BME280;61464;51.472;5.712;2023-01-27T06:26:56;102317.53;;;2.79;100.00
42105;BME280;61464;51.472;5.712;2023-01-27T06:29:22;102307.97;;;2.83;100.00
42105;BME280;61464;51.472;5.712;2023-01-27T06:31:50;102310.31;;;2.88;100.00
42105;BME280;61464;51.472;5.712;2023-01-27T06:34:26;102313.56;;;2.91;100.00
42105;BME280;61464;51.472;5.712;2023-01-27T06:37:02;102316.91;;;2.93;100.00
42105;BME280;61464;51.472;5.712;2023-01-27T06:39:28;102315.97;;;2.94;100.00
42105;BME280;61464;51.472;5.712;2023-01-27T06:41:54;102321.81;;;2.98;100.00
42105;BME280;61464;51.472;5.712;2023-01-27T06:44:26;102322.63;;;2.98;100.00
42105;BME280;61464;51.472;5.712;2023-01-27T06:46:53;102335.47;;;2.98;100.00
42105;BME280;61464;51.472;5.712;2023-01-27T06:49:19;102324.38;;;2.98;100.00
42105;BME280;61464;51.472;5.712;2023-01-27T06:51:45;102336.28;;;2.99;100.00
42105;BME280;61464;51.472;5.712;2023-01-27T06:54:13;102328.53;;;3.00;100.00
42105;BME280;61464;51.472;5.712;2023-01-27T06:56:44;102331.03;;;3.02;100.00
42105;BME280;61464;51.472;5.712;2023-01-27T06:59:10;102333.59;;;3.02;100.00
42105;BME280;61464;51.472;5.712;2023-01-27T07:01:35;102337.69;;;3.06;100.00
42105;BME280;61464;51.472;5.712;2023-01-27T07:04:01;102343.56;;;3.08;100.00
42105;BME280;61464;51.472;5.712;2023-01-27T07:06:27;102342.06;;;3.04;100.00
42105;BME280;61464;51.472;5.712;2023-01-27T07:08:54;102345.44;;;3.05;100.00
42105;BME280;61464;51.472;5.712;2023-01-27T07:11:21;102354.06;;;3.04;100.00
42105;BME280;61464;51.472;5.712;2023-01-27T07:13:49;102340.25;;;3.06;100.00
42105;BME280;61464;51.472;5.712;2023-01-27T07:16:15;102347.72;;;3.11;100.00
42105;BME280;61464;51.472;5.712;2023-01-27T07:18:42;102347.72;;;3.11;100.00
42105;BME280;61464;51.472;5.712;2023-01-27T07:21:08;102349.47;;;3.10;100.00
42105;BME280;61464;51.472;5.712;2023-01-27T07:23:34;102347.66;;;3.12;100.00
42105;BME280;61464;51.472;5.712;2023-01-27T07:26:01;102357.09;;;3.12;100.00
42105;BME280;61464;51.472;5.712;2023-01-27T07:28:27;102348.50;;;3.13;100.00
42105;BME280;61464;51.472;5.712;2023-01-27T07:30:53;102359.38;;;3.18;100.00
42105;BME280;61464;51.472;5.712;2023-01-27T07:33:20;102354.38;;;3.15;100.00
42105;BME280;61464;51.472;5.712;2023-01-27T07:35:48;102354.44;;;3.13;100.00
42105;BME280;61464;51.472;5.712;2023-01-27T07:38:15;102359.44;;;3.16;100.00
42105;BME280;61464;51.472;5.712;2023-01-27T07:41:04;102362.78;;;3.18;100.00
42105;BME280;61464;51.472;5.712;2023-01-27T07:43:42;102365.34;;;3.18;100.00
42105;BME280;61464;51.472;5.712;2023-01-27T07:46:15;102373.75;;;3.22;100.00
42105;BME280;61464;51.472;5.712;2023-01-27T07:48:41;102361.66;;;3.24;100.00
42105;BME280;61464;51.472;5.712;2023-01-27T07:51:13;102369.38;;;3.24;100.00
42105;BME280;61464;51.472;5.712;2023-01-27T07:53:40;102371.94;;;3.24;100.00
42105;BME280;61464;51.472;5.712;2023-01-27T07:56:08;102382.09;;;3.26;100.00
42105;BME280;61464;51.472;5.712;2023-01-27T07:58:40;102369.22;;;3.27;100.00
42105;BME280;61464;51.472;5.712;2023-01-27T08:01:09;102381.22;;;3.27;100.00
42105;BME280;61464;51.472;5.712;2023-01-27T08:03:36;102389.91;;;3.24;100.00
42105;BME280;61464;51.472;5.712;2023-01-27T08:06:10;102383.63;;;3.30;100.00
42105;BME280;61464;51.472;5.712;2023-01-27T08:08:37;102398.91;;;3.33;100.00
42105;BME280;61464;51.472;5.712;2023-01-27T08:11:06;102384.38;;;3.32;100.00
42105;BME280;61464;51.472;5.712;2023-01-27T08:13:52;102381.00;;;3.31;100.00
42105;BME280;61464;51.472;5.712;2023-01-27T08:16:20;102387.03;;;3.30;100.00
42105;BME280;61464;51.472;5.712;2023-01-27T08:18:47;102386.94;;;3.32;100.00
42105;BME280;61464;51.472;5.712;2023-01-27T08:21:14;102387.13;;;3.29;100.00
42105;BME280;61464;51.472;5.712;2023-01-27T08:23:40;102383.44;;;3.34;100.00
42105;BME280;61464;51.472;5.712;2023-01-27T08:26:07;102387.59;;;3.37;100.00
42105;BME280;61464;51.472;5.712;2023-01-27T08:28:36;102390.28;;;3.34;100.00
42105;BME280;61464;51.472;5.712;2023-01-27T08:31:11;102383.44;;;3.34;100.00
42105;BME280;61464;51.472;5.712;2023-01-27T08:33:39;102389.41;;;3.35;100.00
42105;BME280;61464;51.472;5.712;2023-01-27T08:36:16;102385.31;;;3.31;100.00
42105;BME280;61464;51.472;5.712;2023-01-27T08:38:49;102394.59;;;3.33;100.00
42105;BME280;61464;51.472;5.712;2023-01-27T08:41:35;102387.66;;;3.35;100.00
42105;BME280;61464;51.472;5.712;2023-01-27T08:44:02;102396.94;;;3.38;100.00
42105;BME280;61464;51.472;5.712;2023-01-27T08:46:27;102394.38;;;3.38;100.00
42105;BME280;61464;51.472;5.712;2023-01-27T08:48:53;102397.16;;;3.33;100.00
42105;BME280;61464;51.472;5.712;2023-01-27T08:51:21;102397.56;;;3.43;100.00
42105;BME280;61464;51.472;5.712;2023-01-27T08:53:49;102402.78;;;3.41;100.00
42105;BME280;61464;51.472;5.712;2023-01-27T08:56:15;102401.72;;;3.46;100.00
42105;BME280;61464;51.472;5.712;2023-01-27T08:58:42;102405.03;;;3.48;100.00
42105;BME280;61464;51.472;5.712;2023-01-27T09:01:10;102406.78;;;3.47;100.00
42105;BME280;61464;51.472;5.712;2023-01-27T09:03:47;102412.53;;;3.52;100.00
42105;BME280;61464;51.472;5.712;2023-01-27T09:06:16;102416.72;;;3.55;100.00
42105;BME280;61464;51.472;5.712;2023-01-27T09:08:43;102419.19;;;3.56;100.00
42105;BME280;61464;51.472;5.712;2023-01-27T09:11:16;102421.09;;;3.53;100.00
42105;BME280;61464;51.472;5.712;2023-01-27T09:13:42;102430.66;;;3.49;100.00
42105;BME280;61464;51.472;5.712;2023-01-27T09:16:10;102426.13;;;3.54;100.00
42105;BME280;61464;51.472;5.712;2023-01-27T09:18:37;102433.69;;;3.57;100.00
42105;BME280;61464;51.472;5.712;2023-01-27T09:21:11;102440.59;;;3.57;100.00
42105;BME280;61464;51.472;5.712;2023-01-27T09:23:38;102435.22;;;3.61;100.00
42105;BME280;61464;51.472;5.712;2023-01-27T09:26:04;102430.16;;;3.60;100.00
42105;BME280;61464;51.472;5.712;2023-01-27T09:28:30;102428.97;;;3.67;100.00
42105;BME280;61464;51.472;5.712;2023-01-27T09:31:05;102436.75;;;3.66;100.00
42105;BME280;61464;51.472;5.712;2023-01-27T09:33:36;102443.63;;;3.65;100.00
42105;BME280;61464;51.472;5.712;2023-01-27T09:36:10;102439.78;;;3.74;100.00
42105;BME280;61464;51.472;5.712;2023-01-27T09:38:55;102438.56;;;3.81;100.00
42105;BME280;61464;51.472;5.712;2023-01-27T09:50:08;102444.34;;;3.86;100.00
42105;BME280;61464;51.472;5.712;2023-01-27T10:11:11;102436.97;;;4.15;100.00
42105;BME280;61464;51.472;5.712;2023-01-27T10:20:58;102446.09;;;4.03;100.00
42105;BME280;61464;51.472;5.712;2023-01-27T10:24:57;102451.16;;;4.05;100.00
42105;BME280;61464;51.472;5.712;2023-01-27T10:29:57;102456.47;;;4.19;100.00
42105;BME280;61464;51.472;5.712;2023-01-27T10:32:52;102449.03;;;4.30;100.00
42105;BME280;61464;51.472;5.712;2023-01-27T10:41:19;102447.22;;;4.32;100.00
42105;BME280;61464;51.472;5.712;2023-01-27T10:44:33;102447.09;;;4.35;100.00
42105;BME280;61464;51.472;5.712;2023-01-27T10:47:24;102435.22;;;4.33;100.00
42105;BME280;61464;51.472;5.712;2023-01-27T10:50:22;102440.72;;;4.42;100.00
42105;BME280;61464;51.472;5.712;2023-01-27T10:52:59;102429.75;;;4.56;100.00
42105;BME280;61464;51.472;5.712;2023-01-27T10:55:54;102439.56;;;4.66;100.00
42105;BME280;61464;51.472;5.712;2023-01-27T11:01:27;102429.28;;;4.66;100.00
42105;BME280;61464;51.472;5.712;2023-01-27T11:04:07;102423.72;;;4.73;100.00
42105;BME280;61464;51.472;5.712;2023-01-27T11:06:40;102424.03;;;4.67;100.00
42105;BME280;61464;51.472;5.712;2023-01-27T11:09:21;102423.25;;;4.82;100.00
42105;BME280;61464;51.472;5.712;2023-01-27T11:12:09;102425.09;;;4.80;100.00
42105;BME280;61464;51.472;5.712;2023-01-27T11:14:53;102423.13;;;4.68;100.00
42105;BME280;61464;51.472;5.712;2023-01-27T11:17:43;102418.56;;;4.57;100.00
42105;BME280;61464;51.472;5.712;2023-01-27T11:20:29;102429.03;;;4.70;100.00
42105;BME280;61464;51.472;5.712;2023-01-27T11:23:25;102432.13;;;4.77;100.00
42105;BME280;61464;51.472;5.712;2023-01-27T11:26:24;102423.53;;;4.60;100.00
42105;BME280;61464;51.472;5.712;2023-01-27T11:32:15;102421.28;;;4.54;100.00
42105;BME280;61464;51.472;5.712;2023-01-27T11:35:07;102416.81;;;4.40;100.00
42105;BME280;61464;51.472;5.712;2023-01-27T11:37:52;102425.53;;;4.38;100.00
42105;BME280;61464;51.472;5.712;2023-01-27T11:40:33;102425.69;;;4.35;100.00
42105;BME280;61464;51.472;5.712;2023-01-27T11:43:02;102428.25;;;4.35;100.00
42105;BME280;61464;51.472;5.712;2023-01-27T11:45:34;102428.78;;;4.24;100.00
42105;BME280;61464;51.472;5.712;2023-01-27T11:48:07;102418.19;;;4.30;100.00
42105;BME280;61464;51.472;5.712;2023-01-27T11:50:36;102419.50;;;4.39;100.00
42105;BME280;61464;51.472;5.712;2023-01-27T11:53:35;102429.78;;;4.39;100.00
42105;BME280;61464;51.472;5.712;2023-01-27T11:56:30;102423.78;;;4.38;100.00
42105;BME280;61464;51.472;5.712;2023-01-27T11:59:31;102410.47;;;4.30;100.00
42105;BME280;61464;51.472;5.712;2023-01-27T12:12:55;102408.59;;;4.51;100.00
42105;BME280;61464;51.472;5.712;2023-01-27T12:15:25;102409.34;;;4.53;100.00
42105;BME280;61464;51.472;5.712;2023-01-27T12:18:03;102407.16;;;4.46;100.00
42105;BME280;61464;51.472;5.712;2023-01-27T12:20:36;102414.47;;;4.53;100.00
42105;BME280;61464;51.472;5.712;2023-01-27T12:23:29;102404.19;;;4.53;100.00
42105;BME280;61464;51.472;5.712;2023-01-27T12:26:10;102405.78;;;4.56;100.00
42105;BME280;61464;51.472;5.712;2023-01-27T12:28:51;102400.94;;;4.50;100.00
42105;BME280;61464;51.472;5.712;2023-01-27T12:31:28;102399.63;;;4.58;100.00
42105;BME280;61464;51.472;5.712;2023-01-27T12:34:04;102399.69;;;4.57;100.00
42105;BME280;61464;51.472;5.712;2023-01-27T12:36:42;102397.38;;;4.52;100.00
42105;BME280;61464;51.472;5.712;2023-01-27T12:39:29;102402.38;;;4.71;100.00
42105;BME280;61464;51.472;5.712;2023-01-27T12:41:56;102385.63;;;4.64;100.00
42105;BME280;61464;51.472;5.712;2023-01-27T12:44:22;102397.22;;;4.55;100.00
42105;BME280;61464;51.472;5.712;2023-01-27T12:47:28;102395.09;;;4.63;100.00
42105;BME280;61464;51.472;5.712;2023-01-27T12:50:22;102388.03;;;4.67;100.00
42105;BME280;61464;51.472;5.712;2023-01-27T12:53:11;102395.59;;;4.70;100.00
42105;BME280;61464;51.472;5.712;2023-01-27T13:01:29;102390.47;;;4.53;100.00
42105;BME280;61464;51.472;5.712;2023-01-27T13:04:21;102390.03;;;4.62;100.00
42105;BME280;61464;51.472;5.712;2023-01-27T13:07:07;102390.34;;;4.56;100.00
42105;BME280;61464;51.472;5.712;2023-01-27T13:10:00;102380.44;;;4.48;100.00
42105;BME280;61464;51.472;5.712;2023-01-27T13:12:30;102390.91;;;4.45;100.00
42105;BME280;61464;51.472;5.712;2023-01-27T13:15:17;102385.50;;;4.50;100.00
42105;BME280;61464;51.472;5.712;2023-01-27T13:17:52;102391.22;;;4.55;100.00
42105;BME280;61464;51.472;5.712;2023-01-27T13:20:54;102382.69;;;4.54;100.00
42105;BME280;61464;51.472;5.712;2023-01-27T13:23:30;102380.28;;;4.51;100.00
42105;BME280;61464;51.472;5.712;2023-01-27T13:26:10;102393.28;;;4.66;100.00
42105;BME280;61464;51.472;5.712;2023-01-27T13:34:53;102386.84;;;4.57;100.00
42105;BME280;61464;51.472;5.712;2023-01-27T13:37:41;102393.09;;;4.69;100.00
42105;BME280;61464;51.472;5.712;2023-01-27T13:40:44;102391.13;;;4.74;100.00
42105;BME280;61464;51.472;5.712;2023-01-27T13:46:30;102391.91;;;4.58;100.00
42105;BME280;61464;51.472;5.712;2023-01-27T13:49:27;102393.59;;;4.59;100.00
42105;BME280;61464;51.472;5.712;2023-01-27T13:51:50;102390.78;;;4.64;100.00
42105;BME280;61464;51.472;5.712;2023-01-27T13:54:16;102401.06;;;4.64;100.00
42105;BME280;61464;51.472;5.712;2023-01-27T13:57:34;102397.13;;;4.57;100.00
42105;BME280;61464;51.472;5.712;2023-01-27T14:00:21;102398.72;;;4.59;100.00
42105;BME280;61464;51.472;5.712;2023-01-27T14:11:54;102401.97;;;4.63;100.00
42105;BME280;61464;51.472;5.712;2023-01-27T14:26:16;102412.03;;;4.50;100.00
42105;BME280;61464;51.472;5.712;2023-01-27T14:35:08;102408.28;;;4.57;100.00
42105;BME280;61464;51.472;5.712;2023-01-27T14:38:21;102421.19;;;4.56;100.00
42105;BME280;61464;51.472;5.712;2023-01-27T14:41:24;102427.41;;;4.52;100.00
42105;BME280;61464;51.472;5.712;2023-01-27T14:44:10;102420.91;;;4.44;100.00
42105;BME280;61464;51.472;5.712;2023-01-27T14:47:00;102420.13;;;4.42;100.00
42105;BME280;61464;51.472;5.712;2023-01-27T14:50:22;102425.16;;;4.46;100.00
42105;BME280;61464;51.472;5.712;2023-01-27T14:53:30;102428.09;;;4.38;100.00
42105;BME280;61464;51.472;5.712;2023-01-27T14:59:01;102428.16;;;4.36;100.00
42105;BME280;61464;51.472;5.712;2023-01-27T15:04:57;102433.63;;;4.30;100.00
42105;BME280;61464;51.472;5.712;2023-01-27T15:07:51;102436.94;;;4.32;100.00
42105;BME280;61464;51.472;5.712;2023-01-27T15:10:24;102432.78;;;4.30;100.00
42105;BME280;61464;51.472;5.712;2023-01-27T15:16:40;102449.56;;;4.19;100.00
42105;BME280;61464;51.472;5.712;2023-01-27T15:26:24;102455.25;;;4.09;100.00
42105;BME280;61464;51.472;5.712;2023-01-27T15:28:52;102466.28;;;4.11;100.00
42105;BME280;61464;51.472;5.712;2023-01-27T15:31:23;102465.66;;;4.06;100.00
42105;BME280;61464;51.472;5.712;2023-01-27T15:34:20;102465.66;;;4.06;100.00
42105;BME280;61464;51.472;5.712;2023-01-27T15:40:25;102468.91;;;3.92;100.00
42105;BME280;61464;51.472;5.712;2023-01-27T15:43:18;102469.66;;;3.94;100.00
42105;BME280;61464;51.472;5.712;2023-01-27T15:47:15;102480.13;;;3.89;100.00
42105;BME280;61464;51.472;5.712;2023-01-27T15:49:59;102472.59;;;3.86;100.00
42105;BME280;61464;51.472;5.712;2023-01-27T15:52:46;102476.81;;;3.87;100.00
42105;BME280;61464;51.472;5.712;2023-01-27T15:55:32;102494.03;;;3.85;100.00
42105;BME280;61464;51.472;5.712;2023-01-27T15:58:34;102483.00;;;3.83;100.00